Time;durP1;ratioP1;P1;durP2;ratioP2;P2;SDS_P1;SDS_P2;PMS_P1;PMS_P2;Temp;Humidity;BMP_temperature;BMP_pressure;BME280_temperature;BME280_humidity;BME280_pressure;Samples;Min_cycle;Max_cycle;Signal;HPM_P1;HPM_P2
2022/02/20 00:02:03;;;;;;;4.13;0.70;;;5.80;99.90;;;;;;4977441;28;20029;-78
2022/02/20 00:04:28;;;;;;;5.60;0.60;;;5.90;99.90;;;;;;4978022;28;20034;-78
2022/02/20 00:06:54;;;;;;;4.73;0.90;;;5.90;99.90;;;;;;4977733;28;20130;-79
2022/02/20 00:09:20;;;;;;;3.60;0.80;;;6.00;99.90;;;;;;4977712;28;20023;-79
2022/02/20 00:11:45;;;;;;;4.50;0.73;;;6.00;99.90;;;;;;4978020;28;20026;-79
2022/02/20 00:14:11;;;;;;;4.80;0.80;;;6.10;99.90;;;;;;4977370;28;20215;-78
2022/02/20 00:16:37;;;;;;;5.90;1.00;;;6.10;99.90;;;;;;4995052;28;20034;-79
2022/02/20 00:19:03;;;;;;;4.80;1.07;;;6.20;99.90;;;;;;4976932;28;20045;-78
2022/02/20 00:21:29;;;;;;;4.00;0.90;;;6.20;99.90;;;;;;4995031;28;20579;-78
2022/02/20 00:23:54;;;;;;;3.93;1.53;;;6.30;99.90;;;;;;4977191;28;20125;-79
2022/02/20 00:26:20;;;;;;;4.10;0.60;;;6.30;99.90;;;;;;4977702;28;20407;-78
2022/02/20 00:28:46;;;;;;;3.33;0.57;;;6.40;99.90;;;;;;4977885;28;20395;-78
2022/02/20 00:31:11;;;;;;;6.83;0.80;;;6.40;99.90;;;;;;4977240;28;20475;-78
2022/02/20 00:33:37;;;;;;;1.80;0.67;;;6.40;99.90;;;;;;4977757;28;20038;-78
2022/02/20 00:36:03;;;;;;;3.63;0.60;;;6.50;99.90;;;;;;4977209;28;20032;-79
2022/02/20 00:38:28;;;;;;;7.93;1.00;;;6.50;99.90;;;;;;4977898;28;20026;-79
2022/02/20 00:40:54;;;;;;;3.00;0.63;;;6.50;99.90;;;;;;4977219;28;20467;-79
2022/02/20 00:43:20;;;;;;;5.37;1.00;;;6.60;99.90;;;;;;4977555;28;20062;-78
2022/02/20 00:45:46;;;;;;;5.53;0.80;;;6.60;99.90;;;;;;4977463;28;20049;-78
2022/02/20 00:48:17;;;;;;;3.23;0.73;;;6.60;99.60;;;;;;4976873;28;20032;-79
2022/02/20 00:50:43;;;;;;;3.88;0.57;;;6.60;99.80;;;;;;4977409;28;20030;-79
2022/02/20 00:53:09;;;;;;;3.13;0.67;;;6.60;99.60;;;;;;4994094;28;20038;-78
2022/02/20 00:55:35;;;;;;;6.80;0.83;;;6.70;99.60;;;;;;4977161;28;20049;-79
2022/02/20 00:58:02;;;;;;;4.07;0.90;;;6.80;99.40;;;;;;4994036;28;20046;-79
2022/02/20 01:00:27;;;;;;;4.30;1.17;;;6.80;99.30;;;;;;4994624;28;20022;-79
2022/02/20 01:02:53;;;;;;;5.43;0.60;;;6.80;99.50;;;;;;4990393;28;20099;-78
2022/02/20 01:05:19;;;;;;;4.97;1.00;;;6.90;99.10;;;;;;4994434;28;20030;-78
2022/02/20 01:07:45;;;;;;;5.73;0.90;;;6.90;99.40;;;;;;5006647;28;20515;-78
2022/02/20 01:10:12;;;;;;;1.87;0.50;;;6.90;99.30;;;;;;4976172;28;20033;-78
2022/02/20 01:12:38;;;;;;;7.53;0.93;;;6.90;99.10;;;;;;4976868;28;20120;-78
2022/02/20 01:15:05;;;;;;;5.83;0.80;;;6.90;99.00;;;;;;4993522;28;20540;-78
2022/02/20 01:17:32;;;;;;;4.23;0.80;;;7.00;98.90;;;;;;4976586;28;20026;-78
2022/02/20 01:19:57;;;;;;;3.73;0.50;;;7.00;98.80;;;;;;4973062;28;20396;-78
2022/02/20 01:22:24;;;;;;;3.93;0.77;;;7.10;98.30;;;;;;4973686;28;20122;-78
2022/02/20 01:24:49;;;;;;;4.67;0.70;;;7.10;98.50;;;;;;4973549;28;20477;-78
2022/02/20 01:27:15;;;;;;;3.87;0.73;;;7.10;98.90;;;;;;4972844;28;20308;-78
2022/02/20 01:29:41;;;;;;;2.83;0.60;;;7.10;98.90;;;;;;4972647;28;20034;-78
2022/02/20 01:32:07;;;;;;;5.43;0.60;;;7.10;99.00;;;;;;4973998;28;20046;-78
2022/02/20 01:34:32;;;;;;;5.70;0.83;;;7.20;98.60;;;;;;4973536;28;20033;-78
2022/02/20 01:36:58;;;;;;;4.57;0.53;;;7.20;98.70;;;;;;4974239;28;20039;-79
2022/02/20 01:39:24;;;;;;;4.13;0.70;;;7.20;98.50;;;;;;4973540;28;20026;-78
2022/02/20 01:41:53;;;;;;;4.57;0.70;;;7.20;98.70;;;;;;4974766;28;20035;-78
2022/02/20 01:44:20;;;;;;;4.10;0.77;;;7.10;98.60;;;;;;4971928;28;20053;-78
2022/02/20 01:46:50;;;;;;;2.77;0.77;;;7.20;98.40;;;;;;4967399;28;20065;-83
2022/02/20 01:49:17;;;;;;;6.70;0.63;;;7.20;98.30;;;;;;4973312;28;20389;-81
2022/02/20 01:51:43;;;;;;;5.33;0.93;;;7.20;98.70;;;;;;4974255;28;20027;-81
2022/02/20 01:54:09;;;;;;;3.33;1.10;;;7.20;98.50;;;;;;4972234;28;20472;-80
2022/02/20 01:56:35;;;;;;;7.27;1.00;;;7.20;98.90;;;;;;4972654;28;20046;-80
2022/02/20 01:59:03;;;;;;;4.33;0.60;;;7.20;98.50;;;;;;4972564;28;20022;-81
2022/02/20 02:01:29;;;;;;;4.93;0.80;;;7.20;98.90;;;;;;4972368;28;20428;-77
2022/02/20 02:03:54;;;;;;;5.13;0.70;;;7.20;98.70;;;;;;4971140;28;20076;-77
2022/02/20 02:06:20;;;;;;;5.67;0.70;;;7.20;98.50;;;;;;4971235;28;20034;-78
2022/02/20 02:08:46;;;;;;;4.90;0.70;;;7.20;98.60;;;;;;4970609;28;20027;-78
2022/02/20 02:11:12;;;;;;;4.40;0.60;;;7.20;98.90;;;;;;4972267;28;20110;-79
2022/02/20 02:13:38;;;;;;;4.63;0.80;;;7.20;98.80;;;;;;4973551;28;20046;-79
2022/02/20 02:16:04;;;;;;;3.57;0.70;;;7.30;98.70;;;;;;4977981;28;20027;-78
2022/02/20 02:18:30;;;;;;;3.73;0.80;;;7.20;99.00;;;;;;4971819;28;20088;-78
2022/02/20 02:20:56;;;;;;;3.97;0.50;;;7.20;99.30;;;;;;4968990;28;20134;-78
2022/02/20 02:23:21;;;;;;;3.63;0.80;;;7.20;99.50;;;;;;4971708;28;20122;-77
2022/02/20 02:25:51;;;;;;;8.47;0.90;;;7.20;99.70;;;;;;4972082;28;20034;-78
2022/02/20 02:28:17;;;;;;;3.10;0.70;;;7.20;99.90;;;;;;4970509;28;20468;-77
2022/02/20 02:30:45;;;;;;;4.90;0.77;;;7.20;99.90;;;;;;4971821;28;20081;-78
2022/02/20 02:33:10;;;;;;;3.23;0.77;;;7.20;99.90;;;;;;4971424;28;20113;-78
2022/02/20 02:35:36;;;;;;;5.73;0.80;;;7.20;99.90;;;;;;4974042;28;20082;-78
2022/02/20 02:38:04;;;;;;;4.73;0.70;;;7.20;99.90;;;;;;4988178;28;20037;-78
2022/02/20 02:40:30;;;;;;;2.60;0.67;;;7.20;99.90;;;;;;4973782;28;20027;-77
2022/02/20 02:42:56;;;;;;;2.40;0.60;;;7.20;99.90;;;;;;4996039;28;20023;-78
2022/02/20 02:45:27;;;;;;;3.87;0.57;;;7.20;99.90;;;;;;4996128;28;20472;-78
2022/02/20 02:47:52;;;;;;;1.87;0.53;;;7.20;99.90;;;;;;4995624;28;20121;-77
2022/02/20 02:50:18;;;;;;;3.10;0.40;;;7.20;99.90;;;;;;4994765;28;20129;-77
2022/02/20 02:52:44;;;;;;;5.00;0.60;;;7.20;99.90;;;;;;4996218;28;20030;-78
2022/02/20 02:55:10;;;;;;;3.17;0.73;;;7.20;99.90;;;;;;4986887;28;20058;-78
2022/02/20 02:57:36;;;;;;;4.83;0.97;;;7.20;99.90;;;;;;4975936;28;20031;-78
2022/02/20 03:00:04;;;;;;;2.50;0.50;;;7.20;99.90;;;;;;4975291;28;20376;-78
2022/02/20 03:02:30;;;;;;;4.90;0.80;;;7.10;99.90;;;;;;4975739;28;20468;-78
2022/02/20 03:05:00;;;;;;;2.60;0.60;;;7.10;99.90;;;;;;4975777;28;20035;-78
2022/02/20 03:07:26;;;;;;;2.00;0.60;;;7.20;99.90;;;;;;4976038;28;20460;-78
2022/02/20 03:09:51;;;;;;;2.60;0.60;;;7.10;99.90;;;;;;4976880;28;20110;-78
2022/02/20 03:12:17;;;;;;;3.90;0.63;;;7.10;99.90;;;;;;4975277;28;20408;-78
2022/02/20 03:14:43;;;;;;;3.33;0.53;;;7.10;99.90;;;;;;4975747;28;20065;-78
2022/02/20 03:17:08;;;;;;;5.13;0.63;;;7.00;99.90;;;;;;4974970;28;20046;-78
2022/02/20 03:19:34;;;;;;;3.40;0.80;;;7.00;99.90;;;;;;4980962;28;20122;-78
2022/02/20 03:22:00;;;;;;;1.90;0.57;;;7.00;99.90;;;;;;4978845;28;20027;-78
2022/02/20 03:24:25;;;;;;;2.83;0.70;;;6.90;99.90;;;;;;4977658;28;20476;-78
2022/02/20 03:26:51;;;;;;;5.63;0.67;;;6.90;99.90;;;;;;4995991;28;20098;-77
2022/02/20 03:29:16;;;;;;;1.70;0.53;;;6.90;99.90;;;;;;4977895;28;20081;-78
2022/02/20 03:31:42;;;;;;;4.37;0.80;;;6.90;99.90;;;;;;4996222;28;20030;-77
2022/02/20 03:34:07;;;;;;;3.90;0.93;;;6.90;99.90;;;;;;4983189;28;20084;-78
2022/02/20 03:36:34;;;;;;;2.87;0.73;;;6.90;99.90;;;;;;4997679;28;20113;-78
2022/02/20 03:38:59;;;;;;;3.30;0.57;;;6.90;99.90;;;;;;4997761;28;20022;-78
2022/02/20 03:41:25;;;;;;;3.40;0.97;;;6.80;99.90;;;;;;4996864;28;20036;-78
2022/02/20 03:43:51;;;;;;;1.83;0.57;;;6.80;99.90;;;;;;5015266;28;20030;-78
2022/02/20 03:46:17;;;;;;;2.43;0.80;;;6.80;99.90;;;;;;4997167;28;20026;-78
2022/02/20 03:48:43;;;;;;;6.50;0.70;;;6.80;99.90;;;;;;4997886;28;20058;-78
2022/02/20 03:51:08;;;;;;;4.97;1.00;;;6.70;99.90;;;;;;4997014;28;20471;-79
2022/02/20 03:53:34;;;;;;;2.57;0.87;;;6.80;99.90;;;;;;5015127;28;20034;-78
2022/02/20 03:55:59;;;;;;;4.47;0.97;;;6.70;99.90;;;;;;4997842;28;20026;-78
2022/02/20 03:58:25;;;;;;;6.43;1.00;;;6.70;99.90;;;;;;4997267;28;20026;-78
2022/02/20 04:00:51;;;;;;;3.47;0.83;;;6.70;99.90;;;;;;5015048;28;20025;-79
2022/02/20 04:03:17;;;;;;;2.37;0.63;;;6.80;99.90;;;;;;4997077;28;20041;-78
2022/02/20 04:05:42;;;;;;;2.70;0.90;;;6.70;99.90;;;;;;4997267;28;20048;-78
2022/02/20 04:08:08;;;;;;;4.27;0.70;;;6.70;99.90;;;;;;4996757;28;20033;-78
2022/02/20 04:10:34;;;;;;;0.93;0.53;;;6.70;99.90;;;;;;4997146;28;20028;-77
2022/02/20 04:12:59;;;;;;;2.17;0.30;;;6.70;99.90;;;;;;4997153;28;20021;-77
2022/02/20 04:15:25;;;;;;;2.90;1.00;;;6.70;99.90;;;;;;4996569;28;20052;-78
2022/02/20 04:17:51;;;;;;;4.80;0.50;;;6.70;99.90;;;;;;5014781;28;20034;-78
2022/02/20 04:20:18;;;;;;;2.23;0.50;;;6.70;99.90;;;;;;4996454;28;20545;-78
2022/02/20 04:22:45;;;;;;;6.63;0.83;;;6.70;99.90;;;;;;4996933;28;20470;-77
2022/02/20 04:25:12;;;;;;;2.27;0.63;;;6.70;99.90;;;;;;4996383;28;20105;-78
2022/02/20 04:27:39;;;;;;;5.83;0.60;;;6.70;99.90;;;;;;4997429;28;20505;-78
2022/02/20 04:30:07;;;;;;;2.93;0.43;;;6.70;99.90;;;;;;4996529;28;20033;-79
2022/02/20 04:32:34;;;;;;;4.63;0.40;;;6.70;99.90;;;;;;4996712;28;20535;-78
2022/02/20 04:35:01;;;;;;;2.43;0.60;;;6.70;99.90;;;;;;4997003;28;20034;-78
2022/02/20 04:37:26;;;;;;;2.23;0.47;;;6.70;99.90;;;;;;4996558;28;20458;-79
2022/02/20 04:39:52;;;;;;;7.53;0.80;;;6.70;99.90;;;;;;4996865;28;20117;-78
2022/02/20 04:42:18;;;;;;;0.77;0.23;;;6.70;99.90;;;;;;4996072;28;20029;-78
2022/02/20 04:44:43;;;;;;;2.00;0.50;;;6.70;99.90;;;;;;4996705;28;20042;-78
2022/02/20 04:47:09;;;;;;;1.73;0.50;;;6.70;99.90;;;;;;4996186;28;20072;-79
2022/02/20 04:49:35;;;;;;;2.90;0.70;;;6.70;99.90;;;;;;4996445;28;20033;-79
2022/02/20 04:52:00;;;;;;;2.60;0.70;;;6.70;99.90;;;;;;4996243;28;20038;-78
2022/02/20 04:54:26;;;;;;;1.37;0.30;;;6.70;99.90;;;;;;4996148;28;20218;-78
2022/02/20 04:56:51;;;;;;;2.67;0.40;;;6.70;99.90;;;;;;4996337;28;20490;-78
2022/02/20 04:59:17;;;;;;;1.93;0.33;;;6.70;99.90;;;;;;4995997;28;20121;-79
2022/02/20 05:01:43;;;;;;;0.80;0.20;;;6.70;99.90;;;;;;4996111;28;20026;-78
2022/02/20 05:04:09;;;;;;;1.53;0.23;;;6.70;99.90;;;;;;5012687;28;20036;-79
2022/02/20 05:06:35;;;;;;;4.27;0.30;;;6.70;99.90;;;;;;4996382;28;20034;-78
2022/02/20 05:09:02;;;;;;;1.13;0.30;;;6.70;99.90;;;;;;4996322;28;20030;-79
2022/02/20 05:11:28;;;;;;;3.07;0.43;;;6.70;99.90;;;;;;5013407;28;20191;-79
2022/02/20 05:13:58;;;;;;;2.30;0.30;;;6.70;99.90;;;;;;4996523;28;20132;-79
2022/02/20 05:16:28;;;;;;;2.53;0.50;;;6.70;99.90;;;;;;4995757;28;20026;-79
2022/02/20 05:18:54;;;;;;;1.77;0.20;;;6.70;99.90;;;;;;4995998;28;20034;-78
2022/02/20 05:21:21;;;;;;;1.97;0.20;;;6.70;99.90;;;;;;4995341;28;20049;-78
2022/02/20 05:23:47;;;;;;;7.47;0.50;;;6.80;99.90;;;;;;4995818;28;20033;-78
2022/02/20 05:26:13;;;;;;;1.67;0.40;;;6.80;99.90;;;;;;4995490;28;20450;-78
2022/02/20 05:28:40;;;;;;;1.03;0.30;;;6.80;99.90;;;;;;5013114;28;20471;-77
2022/02/20 05:31:06;;;;;;;0.93;0.30;;;6.80;99.90;;;;;;5013430;28;20088;-77
2022/02/20 05:33:31;;;;;;;1.60;0.30;;;6.80;99.90;;;;;;4995185;28;20435;-78
2022/02/20 05:35:57;;;;;;;3.60;0.30;;;6.80;99.90;;;;;;4995641;28;20030;-77
2022/02/20 05:38:23;;;;;;;1.33;0.37;;;6.80;99.90;;;;;;5012840;28;20075;-78
2022/02/20 05:40:49;;;;;;;2.50;0.50;;;6.90;99.90;;;;;;4995948;28;20360;-79
2022/02/20 05:43:14;;;;;;;2.37;0.30;;;6.90;99.90;;;;;;5012899;28;20037;-79
2022/02/20 05:45:40;;;;;;;1.77;0.30;;;6.90;99.90;;;;;;4995928;28;20038;-78
2022/02/20 05:48:06;;;;;;;1.17;0.43;;;6.90;99.90;;;;;;4996041;28;20030;-78
2022/02/20 05:50:31;;;;;;;2.83;0.50;;;6.90;99.90;;;;;;4995145;28;20422;-78
2022/02/20 05:52:57;;;;;;;1.83;0.63;;;6.90;99.90;;;;;;4995606;28;20418;-78
2022/02/20 05:55:24;;;;;;;0.50;0.27;;;7.00;99.90;;;;;;4994956;28;20065;-78
2022/02/20 05:57:52;;;;;;;1.63;0.40;;;6.90;99.90;;;;;;4995884;28;20538;-80
2022/02/20 06:00:19;;;;;;;1.17;0.40;;;7.00;99.90;;;;;;4995264;28;20026;-78
2022/02/20 06:02:45;;;;;;;1.30;0.10;;;6.90;99.90;;;;;;4995562;28;20478;-78
2022/02/20 06:05:11;;;;;;;2.67;0.40;;;7.00;99.90;;;;;;4995060;28;20026;-78
2022/02/20 06:07:40;;;;;;;0.40;0.30;;;7.00;99.90;;;;;;4995390;28;20033;-76
2022/02/20 06:10:07;;;;;;;2.73;0.33;;;7.00;99.90;;;;;;4995837;28;20029;-77
2022/02/20 06:12:33;;;;;;;0.43;0.20;;;7.00;99.90;;;;;;4995239;28;20032;-76
2022/02/20 06:14:59;;;;;;;0.60;0.33;;;7.00;99.90;;;;;;4996840;28;20391;-76
2022/02/20 06:17:25;;;;;;;1.23;0.30;;;7.00;99.90;;;;;;4999165;28;20076;-76
2022/02/20 06:19:51;;;;;;;0.57;0.20;;;7.00;99.90;;;;;;4995914;28;20061;-77
2022/02/20 06:22:17;;;;;;;1.83;0.30;;;7.00;99.90;;;;;;4995621;28;20054;-77
2022/02/20 06:24:42;;;;;;;0.63;0.30;;;7.00;99.90;;;;;;4995892;28;20065;-76
2022/02/20 06:27:08;;;;;;;1.23;0.10;;;7.00;99.90;;;;;;4996136;28;20120;-76
2022/02/20 06:29:34;;;;;;;1.97;0.30;;;7.00;99.90;;;;;;4995447;28;20030;-76
2022/02/20 06:32:00;;;;;;;0.93;0.40;;;7.00;99.90;;;;;;4995875;28;20038;-76
2022/02/20 06:34:26;;;;;;;1.00;0.20;;;7.00;99.90;;;;;;4995315;28;20030;-76
2022/02/20 06:36:52;;;;;;;0.50;0.20;;;7.00;99.90;;;;;;4996230;28;20169;-76
2022/02/20 06:39:17;;;;;;;1.03;0.20;;;7.00;99.90;;;;;;4995441;28;20456;-76
2022/02/20 06:41:43;;;;;;;2.03;0.40;;;7.00;99.90;;;;;;4996895;28;20460;-76
2022/02/20 06:44:09;;;;;;;1.87;0.17;;;7.00;99.90;;;;;;4995707;28;20034;-76
2022/02/20 06:46:35;;;;;;;1.30;0.23;;;7.00;99.90;;;;;;4995117;28;20041;-76
2022/02/20 06:49:01;;;;;;;1.43;0.20;;;7.00;99.90;;;;;;4995715;28;20048;-76
2022/02/20 06:51:28;;;;;;;1.13;0.10;;;7.00;99.90;;;;;;4994954;28;20039;-76
2022/02/20 06:53:54;;;;;;;1.40;0.20;;;7.00;99.90;;;;;;4996821;28;20456;-76
2022/02/20 06:56:20;;;;;;;0.97;0.20;;;6.90;99.90;;;;;;4996147;28;20026;-77
2022/02/20 06:58:46;;;;;;;1.07;0.13;;;6.90;99.90;;;;;;4995598;28;20033;-76
2022/02/20 07:01:11;;;;;;;1.27;0.30;;;6.90;99.90;;;;;;4995315;28;20027;-76
2022/02/20 07:03:37;;;;;;;1.77;0.20;;;6.90;99.90;;;;;;4994561;28;20069;-75
2022/02/20 07:06:04;;;;;;;2.33;0.20;;;6.90;99.90;;;;;;4995068;28;20078;-76
2022/02/20 07:08:30;;;;;;;2.80;0.77;;;6.90;99.90;;;;;;4994724;28;20054;-75
2022/02/20 07:10:56;;;;;;;1.10;0.10;;;6.90;99.90;;;;;;4995104;28;20034;-76
2022/02/20 07:13:22;;;;;;;0.33;0.10;;;6.90;99.90;;;;;;4994547;28;20096;-76
2022/02/20 07:15:48;;;;;;;0.53;0.10;;;6.90;99.90;;;;;;4995256;28;20029;-76
2022/02/20 07:18:14;;;;;;;0.60;0.17;;;7.00;99.90;;;;;;4995908;28;20058;-76
2022/02/20 07:20:42;;;;;;;0.57;0.20;;;7.00;99.90;;;;;;5009628;28;20050;-76
2022/02/20 07:23:08;;;;;;;4.20;0.23;;;7.00;99.90;;;;;;4998310;28;20458;-76
2022/02/20 07:25:33;;;;;;;1.33;0.20;;;7.00;99.90;;;;;;5015091;28;20044;-76
2022/02/20 07:27:59;;;;;;;1.50;0.30;;;7.00;99.90;;;;;;5014790;28;20022;-76
2022/02/20 07:30:28;;;;;;;0.87;0.20;;;7.00;99.90;;;;;;4997375;28;20126;-76
2022/02/20 07:32:59;;;;;;;1.70;0.20;;;7.00;99.90;;;;;;4998142;28;20022;-76
2022/02/20 07:35:25;;;;;;;0.68;0.10;;;7.00;99.90;;;;;;4997613;28;20030;-76
2022/02/20 07:37:51;;;;;;;0.83;0.10;;;7.00;99.90;;;;;;4998300;28;20087;-77
2022/02/20 07:40:16;;;;;;;0.60;0.30;;;7.00;99.90;;;;;;4998031;28;20025;-78
2022/02/20 07:42:43;;;;;;;0.57;0.20;;;7.10;99.90;;;;;;4998018;28;20053;-77
2022/02/20 07:45:09;;;;;;;1.53;0.33;;;7.00;99.90;;;;;;5015065;28;20033;-76
2022/02/20 07:47:59;;;;;;;0.57;0.20;;;7.00;99.90;;;;;;4997053;28;20034;-76
2022/02/20 07:50:30;;;;;;;1.70;0.30;;;7.00;99.90;;;;;;5014900;28;20022;-76
2022/02/20 07:52:57;;;;;;;0.87;0.20;;;7.10;99.90;;;;;;4997482;28;20030;-76
2022/02/20 07:55:23;;;;;;;0.77;0.20;;;7.10;99.90;;;;;;4997086;28;20029;-76
2022/02/20 07:57:49;;;;;;;1.27;0.17;;;7.10;99.90;;;;;;5015030;28;20033;-76
2022/02/20 08:00:19;;;;;;;0.87;0.20;;;7.10;99.90;;;;;;4997742;28;20030;-76
2022/02/20 08:02:46;;;;;;;1.27;0.37;;;7.20;99.90;;;;;;5014909;28;20080;-76
2022/02/20 08:05:12;;;;;;;0.43;0.10;;;7.20;99.90;;;;;;4997402;28;20037;-76
2022/02/20 08:07:38;;;;;;;1.83;0.40;;;7.30;99.90;;;;;;4996702;28;20053;-76
2022/02/20 08:10:05;;;;;;;0.33;0.13;;;7.30;99.90;;;;;;4997169;28;20489;-76
2022/02/20 08:12:31;;;;;;;2.57;0.20;;;7.40;99.90;;;;;;5013997;28;20422;-76
2022/02/20 08:14:56;;;;;;;0.73;0.27;;;7.40;99.90;;;;;;4997064;28;20493;-76
2022/02/20 08:17:25;;;;;;;1.93;0.60;;;7.40;99.90;;;;;;4996191;28;20029;-76
2022/02/20 08:19:51;;;;;;;1.20;0.40;;;7.50;99.90;;;;;;4993529;28;20058;-76
2022/02/20 08:22:17;;;;;;;0.40;0.20;;;7.50;99.90;;;;;;4993682;28;20085;-76
2022/02/20 08:24:44;;;;;;;0.70;0.30;;;7.60;99.90;;;;;;4993060;28;20097;-76
2022/02/20 08:27:10;;;;;;;1.10;0.20;;;7.60;99.90;;;;;;4994054;28;20033;-76
2022/02/20 08:29:36;;;;;;;1.73;0.30;;;7.60;99.90;;;;;;4994650;28;20077;-77
2022/02/20 08:32:02;;;;;;;1.83;0.13;;;7.70;99.90;;;;;;4993978;28;20026;-76
2022/02/20 08:34:31;;;;;;;0.33;0.10;;;7.70;99.90;;;;;;4994323;28;20100;-76
2022/02/20 08:36:56;;;;;;;1.80;0.30;;;7.70;99.90;;;;;;4994772;28;20101;-76
2022/02/20 08:39:22;;;;;;;3.10;0.43;;;7.70;99.90;;;;;;4993170;28;20049;-76
2022/02/20 08:41:48;;;;;;;0.95;0.20;;;7.70;99.90;;;;;;4993681;28;20051;-76
2022/02/20 08:44:13;;;;;;;1.63;0.20;;;7.70;99.90;;;;;;4994672;28;20069;-76
2022/02/20 08:46:39;;;;;;;1.50;0.10;;;7.70;99.90;;;;;;4993092;28;20034;-76
2022/02/20 08:49:05;;;;;;;0.47;0.10;;;7.70;99.90;;;;;;4994747;28;20108;-76
2022/02/20 08:51:31;;;;;;;0.30;0.10;;;7.70;99.90;;;;;;4992760;28;20041;-76
2022/02/20 08:53:57;;;;;;;1.00;0.20;;;7.70;99.90;;;;;;4993135;28;20369;-76
2022/02/20 08:56:26;;;;;;;0.65;0.13;;;7.80;99.90;;;;;;4992795;28;20571;-77
2022/02/20 08:58:52;;;;;;;1.33;0.30;;;7.70;99.90;;;;;;4993044;28;20026;-76
2022/02/20 09:01:18;;;;;;;1.97;0.20;;;7.80;99.90;;;;;;4993093;28;20471;-77
2022/02/20 09:03:44;;;;;;;0.53;0.10;;;7.80;99.90;;;;;;4992502;28;20066;-76
2022/02/20 09:06:10;;;;;;;2.08;0.20;;;7.70;99.90;;;;;;4993386;28;20037;-76
2022/02/20 09:08:36;;;;;;;0.60;0.20;;;7.80;99.90;;;;;;4992150;28;20493;-76
2022/02/20 09:11:01;;;;;;;0.30;0.20;;;7.70;99.90;;;;;;4993487;28;20037;-76
2022/02/20 09:13:27;;;;;;;0.35;0.17;;;7.70;99.90;;;;;;4992470;28;20026;-76
2022/02/20 09:15:54;;;;;;;0.50;0.10;;;7.70;99.90;;;;;;4993011;28;20534;-76
2022/02/20 09:18:20;;;;;;;2.00;0.20;;;7.70;99.90;;;;;;4992483;28;20030;-76
2022/02/20 09:20:45;;;;;;;1.97;0.30;;;7.70;99.90;;;;;;4992102;28;20058;-76
2022/02/20 09:23:11;;;;;;;0.80;0.30;;;7.70;99.90;;;;;;4992698;28;20026;-76
2022/02/20 09:25:37;;;;;;;0.77;0.30;;;7.80;99.90;;;;;;4993458;28;20034;-76
2022/02/20 09:28:03;;;;;;;0.70;0.30;;;7.70;99.90;;;;;;4992932;28;20054;-76
2022/02/20 09:30:29;;;;;;;1.63;0.28;;;7.70;99.90;;;;;;4988191;28;20054;-76
2022/02/20 09:32:55;;;;;;;1.37;0.23;;;7.70;99.90;;;;;;4972774;28;20033;-76
2022/02/20 09:35:22;;;;;;;1.30;0.10;;;7.70;99.90;;;;;;4972685;28;20476;-76
2022/02/20 09:37:47;;;;;;;0.60;0.20;;;7.80;99.90;;;;;;4972284;28;20526;-76
2022/02/20 09:40:13;;;;;;;0.60;0.30;;;7.90;99.90;;;;;;4972796;28;20026;-76
2022/02/20 09:42:39;;;;;;;0.50;0.20;;;7.90;99.90;;;;;;4972486;28;20049;-76
2022/02/20 09:45:05;;;;;;;0.30;0.15;;;8.00;99.90;;;;;;4972732;28;20037;-76
2022/02/20 09:47:37;;;;;;;0.30;0.25;;;8.00;99.90;;;;;;4972250;28;20035;-76
2022/02/20 09:50:04;;;;;;;0.60;0.20;;;8.00;99.90;;;;;;4975356;28;20117;-76
2022/02/20 09:52:30;;;;;;;0.40;0.20;;;8.00;99.90;;;;;;4959480;29;20117;-77
2022/02/20 09:54:55;;;;;;;1.02;0.30;;;8.00;99.90;;;;;;4960372;28;20547;-75
2022/02/20 09:57:21;;;;;;;0.60;0.20;;;8.10;99.90;;;;;;4980119;28;20050;-76
2022/02/20 09:59:47;;;;;;;1.15;0.40;;;8.10;99.90;;;;;;4978729;28;20027;-75
2022/02/20 10:02:18;;;;;;;1.92;0.30;;;8.10;99.90;;;;;;4979154;28;20066;-76
2022/02/20 10:04:48;;;;;;;2.13;0.33;;;8.20;99.90;;;;;;4978514;28;20031;-77
2022/02/20 10:07:34;;;;;;;0.30;0.17;;;8.20;99.90;;;;;;4980587;28;20030;-76
2022/02/20 10:10:17;;;;;;;1.15;0.22;;;8.30;99.90;;;;;;4979541;28;20033;-76
2022/02/20 10:12:45;;;;;;;0.95;0.30;;;8.30;99.90;;;;;;4962207;28;20496;-77
2022/02/20 10:15:32;;;;;;;1.02;0.30;;;8.30;99.90;;;;;;4979490;28;20038;-77
2022/02/20 10:18:10;;;;;;;1.40;0.20;;;8.30;99.90;;;;;;4979389;28;20472;-77
2022/02/20 10:20:36;;;;;;;1.30;0.30;;;8.40;99.90;;;;;;4978419;28;20072;-76
2022/02/20 10:23:06;;;;;;;0.70;0.20;;;8.50;99.90;;;;;;4980146;28;20114;-76
2022/02/20 10:25:32;;;;;;;0.22;0.10;;;8.50;99.90;;;;;;4978901;28;20384;-77
2022/02/20 10:27:57;;;;;;;1.08;0.22;;;8.50;99.90;;;;;;4979399;28;20030;-77
2022/02/20 10:30:28;;;;;;;1.02;0.30;;;8.60;99.90;;;;;;4979144;28;20473;-77
2022/02/20 10:33:19;;;;;;;1.75;0.30;;;8.60;99.90;;;;;;4979068;28;20026;-77
2022/02/20 10:35:50;;;;;;;4.00;0.50;;;8.70;99.90;;;;;;4979848;28;20081;-77
2022/02/20 10:38:21;;;;;;;0.32;0.20;;;8.60;99.90;;;;;;4979173;28;20053;-77
2022/02/20 10:40:50;;;;;;;1.05;0.13;;;8.60;99.90;;;;;;4977418;28;20464;-77
2022/02/20 10:43:28;;;;;;;1.10;0.20;;;8.70;99.90;;;;;;4978695;28;20018;-76
2022/02/20 10:46:16;;;;;;;0.70;0.30;;;8.70;99.90;;;;;;4980225;28;20034;-77
2022/02/20 10:48:48;;;;;;;2.50;0.30;;;8.70;99.90;;;;;;4989801;28;20034;-77
2022/02/20 10:51:15;;;;;;;1.17;0.22;;;8.80;99.90;;;;;;4979176;28;20058;-77
2022/02/20 10:53:42;;;;;;;1.38;0.30;;;8.90;99.90;;;;;;4979093;28;20030;-77
2022/02/20 10:56:08;;;;;;;1.10;0.25;;;8.90;99.90;;;;;;4975642;28;20030;-78
2022/02/20 10:58:44;;;;;;;1.75;0.30;;;9.00;99.90;;;;;;4978479;28;20078;-77
2022/02/20 11:01:21;;;;;;;0.90;0.30;;;9.00;99.90;;;;;;4977194;28;20027;-77
2022/02/20 11:03:48;;;;;;;1.02;0.40;;;8.90;99.90;;;;;;4975182;28;20121;-77
2022/02/20 11:06:14;;;;;;;0.88;0.38;;;9.00;99.90;;;;;;4974805;28;20138;-77
2022/02/20 11:08:40;;;;;;;0.13;0.10;;;9.00;99.90;;;;;;4974918;28;20484;-77
2022/02/20 11:11:36;;;;;;;1.23;0.30;;;8.90;99.90;;;;;;4975347;28;20391;-77
2022/02/20 11:13:53;;;;;;;0.95;0.28;;;8.90;99.90;;;;;;4972790;28;20026;-77
2022/02/20 11:16:19;;;;;;;1.23;0.30;;;9.00;99.90;;;;;;4975105;28;20026;-78
2022/02/20 11:18:46;;;;;;;4.05;0.50;;;8.90;99.90;;;;;;4974168;28;20081;-78
2022/02/20 11:21:14;;;;;;;2.47;0.70;;;9.00;99.90;;;;;;4973194;28;20051;-78
2022/02/20 11:23:41;;;;;;;0.45;0.17;;;9.00;99.90;;;;;;4975704;28;20030;-77
2022/02/20 11:26:08;;;;;;;1.35;0.30;;;9.00;99.90;;;;;;4978168;28;20083;-75
2022/02/20 11:28:38;;;;;;;1.45;0.20;;;9.00;99.90;;;;;;4975235;28;20460;-78
2022/02/20 11:31:05;;;;;;;1.05;0.38;;;9.00;99.90;;;;;;4975764;28;20388;-77
2022/02/20 11:33:33;;;;;;;2.63;0.30;;;9.00;99.90;;;;;;4974185;28;20082;-76
2022/02/20 11:36:00;;;;;;;1.33;0.43;;;9.10;99.90;;;;;;4973877;28;20065;-76
2022/02/20 11:38:26;;;;;;;2.72;0.30;;;9.10;99.90;;;;;;4974245;28;20023;-77
2022/02/20 11:41:02;;;;;;;0.68;0.30;;;9.10;99.90;;;;;;4977048;28;20034;-77
2022/02/20 11:43:50;;;;;;;0.30;0.22;;;9.10;99.90;;;;;;4970358;28;20427;-76
2022/02/20 11:46:20;;;;;;;0.57;0.20;;;9.20;99.90;;;;;;4974952;28;20030;-76
2022/02/20 11:49:04;;;;;;;0.60;0.25;;;9.20;99.90;;;;;;4971019;28;20384;-76
2022/02/20 11:51:31;;;;;;;2.40;0.60;;;9.20;99.90;;;;;;4968753;28;20027;-76
2022/02/20 11:54:20;;;;;;;1.75;0.30;;;9.10;99.90;;;;;;4975268;28;20037;-76
2022/02/20 11:57:12;;;;;;;1.08;0.40;;;9.10;99.90;;;;;;4969973;28;20031;-77
2022/02/20 11:59:39;;;;;;;1.77;0.30;;;9.20;99.90;;;;;;4976810;28;20054;-77
2022/02/20 12:02:12;;;;;;;1.08;0.28;;;9.20;99.90;;;;;;4974289;28;20031;-77
2022/02/20 12:04:50;;;;;;;0.75;0.35;;;9.20;99.90;;;;;;4974603;28;20031;-77
2022/02/20 12:07:41;;;;;;;2.92;0.40;;;9.20;99.90;;;;;;4973691;28;20038;-76
2022/02/20 12:10:19;;;;;;;2.58;0.50;;;9.30;99.90;;;;;;4974028;28;20027;-76
2022/02/20 12:12:54;;;;;;;2.42;0.52;;;9.50;99.90;;;;;;4973025;28;20031;-76
2022/02/20 12:15:26;;;;;;;1.58;0.60;;;9.50;99.90;;;;;;4974816;28;20046;-76
2022/02/20 12:18:10;;;;;;;0.30;0.20;;;9.60;99.90;;;;;;4971529;28;20062;-75
2022/02/20 12:20:57;;;;;;;2.50;0.50;;;9.60;99.90;;;;;;4972669;28;20055;-76
2022/02/20 12:23:30;;;;;;;0.88;0.30;;;9.60;99.90;;;;;;4973686;28;20031;-76
2022/02/20 12:26:01;;;;;;;1.92;0.45;;;9.70;99.90;;;;;;4974790;28;20494;-76
2022/02/20 12:28:43;;;;;;;1.52;0.30;;;9.80;99.90;;;;;;4974611;28;20031;-75
2022/02/20 12:31:15;;;;;;;0.50;0.20;;;9.80;99.90;;;;;;4973497;28;20053;-75
2022/02/20 12:33:48;;;;;;;1.52;0.25;;;9.80;99.90;;;;;;4972568;28;20042;-75
2022/02/20 12:36:26;;;;;;;1.38;0.20;;;9.90;99.90;;;;;;4973463;28;20038;-75
2022/02/20 12:38:54;;;;;;;1.48;0.40;;;9.90;99.90;;;;;;4958888;28;20038;-75
2022/02/20 12:41:20;;;;;;;0.88;0.35;;;10.00;99.90;;;;;;4972992;28;20049;-75
2022/02/20 12:43:50;;;;;;;1.52;0.30;;;10.00;99.90;;;;;;4975447;28;20154;-74
2022/02/20 12:46:16;;;;;;;0.80;0.30;;;10.00;99.90;;;;;;4983287;28;20120;-76
2022/02/20 12:48:42;;;;;;;1.30;0.30;;;10.00;99.90;;;;;;4971547;28;21461;-75
2022/02/20 12:51:09;;;;;;;2.47;0.30;;;10.10;99.90;;;;;;4984573;28;20102;-75
2022/02/20 12:53:36;;;;;;;2.25;0.50;;;10.10;99.90;;;;;;4986705;28;20033;-74
2022/02/20 12:56:05;;;;;;;1.15;0.28;;;10.10;99.90;;;;;;4975149;28;20094;-74
2022/02/20 12:58:31;;;;;;;2.70;0.57;;;10.20;99.90;;;;;;4972400;28;20034;-75
2022/02/20 13:00:57;;;;;;;1.30;0.22;;;10.30;99.90;;;;;;4972848;28;20026;-74